EDDP/LEJ METAR and TAF weather

Enter ICAO airport designator
Station Type Date Time Source
EDDP METAR 2020/07/04 02:20 UTC NOAA

EDDP 040220Z 19006KT CAVOK 15/10 Q1017 NOSIG


Station Type Date Time Source
EDDP Decoded METAR 2020/07/04 02:20 UTC NOAA

Leipzig-Schkeuditz, Germany (EDDP) 51-25N 012-14E 149M
Jul 03, 2020 - 10:20 PM EDT / 2020.07.04 0220 UTC
Wind: from the S (190 degrees) at 7 MPH (6 KT):0
Visibility: greater than 7 mile(s):0
Temperature: 59 F (15 C)
Dew Point: 50 F (10 C)
Relative Humidity: 72%
Pressure (altimeter): 30.03 in. Hg (1017 hPa)
ob: EDDP 040220Z 19006KT CAVOK 15/10 Q1017 NOSIG
cycle: 2

Station Type Date Time Source
EDDP TAF 2020/07/03 18:27 UTC NOAA

TAF COR EDDP 031700Z 0318/0418 26011KT CAVOK
BECMG 0318/0320 22006KT
BECMG 0405/0407 23012KT
BECMG 0407/0410 23015G25KT PROB30
TEMPO 0410/0415 24020G30KT

Example: see airport list